sensor_id;sensor_type;location;lat;lon;timestamp;pressure;altitude;pressure_sealevel;temperature;humidity
46464;BME280;32161;48.148;-1.554;2023-05-12T00:00:13;101205.72;;;10.69;89.53
46464;BME280;32161;48.148;-1.554;2023-05-12T00:02:41;101210.78;;;10.65;89.71
46464;BME280;32161;48.148;-1.554;2023-05-12T00:05:09;101205.75;;;10.62;89.92
46464;BME280;32161;48.148;-1.554;2023-05-12T00:07:37;101207.03;;;10.60;90.34
46464;BME280;32161;48.148;-1.554;2023-05-12T00:10:06;101199.31;;;10.57;89.77
46464;BME280;32161;48.148;-1.554;2023-05-12T00:12:33;101204.53;;;10.58;88.61
46464;BME280;32161;48.148;-1.554;2023-05-12T00:15:03;101202.41;;;10.60;86.83
46464;BME280;32161;48.148;-1.554;2023-05-12T00:17:31;101208.47;;;10.62;85.95
46464;BME280;32161;48.148;-1.554;2023-05-12T00:19:58;101204.72;;;10.63;85.75
46464;BME280;32161;48.148;-1.554;2023-05-12T00:22:26;101197.81;;;10.61;85.81
46464;BME280;32161;48.148;-1.554;2023-05-12T00:24:53;101195.72;;;10.63;86.92
46464;BME280;32161;48.148;-1.554;2023-05-12T00:27:21;101204.94;;;10.62;87.37
46464;BME280;32161;48.148;-1.554;2023-05-12T00:29:49;101195.09;;;10.61;87.76
46464;BME280;32161;48.148;-1.554;2023-05-12T00:32:18;101201.59;;;10.60;87.03
46464;BME280;32161;48.148;-1.554;2023-05-12T00:34:45;101203.72;;;10.58;88.21
46464;BME280;32161;48.148;-1.554;2023-05-12T00:37:13;101196.97;;;10.60;88.78
46464;BME280;32161;48.148;-1.554;2023-05-12T00:39:40;101189.50;;;10.56;89.27
46464;BME280;32161;48.148;-1.554;2023-05-12T00:42:08;101188.25;;;10.51;87.97
46464;BME280;32161;48.148;-1.554;2023-05-12T00:44:37;101192.03;;;10.50;86.26
46464;BME280;32161;48.148;-1.554;2023-05-12T00:47:05;101182.22;;;10.49;85.73
46464;BME280;32161;48.148;-1.554;2023-05-12T00:49:34;101187.47;;;10.44;85.80
46464;BME280;32161;48.148;-1.554;2023-05-12T00:52:03;101190.63;;;10.41;86.03
46464;BME280;32161;48.148;-1.554;2023-05-12T00:54:31;101193.56;;;10.40;86.72
46464;BME280;32161;48.148;-1.554;2023-05-12T00:56:58;101185.63;;;10.38;85.92
46464;BME280;32161;48.148;-1.554;2023-05-12T00:59:26;101190.88;;;10.33;86.14
46464;BME280;32161;48.148;-1.554;2023-05-12T01:01:55;101185.91;;;10.30;87.97
46464;BME280;32161;48.148;-1.554;2023-05-12T01:04:23;101181.28;;;10.24;89.12
46464;BME280;32161;48.148;-1.554;2023-05-12T01:06:57;101186.72;;;10.31;88.05
46464;BME280;32161;48.148;-1.554;2023-05-12T01:09:26;101184.22;;;10.29;87.08
46464;BME280;32161;48.148;-1.554;2023-05-12T01:11:54;101175.03;;;10.30;86.67
46464;BME280;32161;48.148;-1.554;2023-05-12T01:14:21;101181.50;;;10.29;88.28
46464;BME280;32161;48.148;-1.554;2023-05-12T01:16:54;101180.06;;;10.20;88.84
46464;BME280;32161;48.148;-1.554;2023-05-12T01:19:41;101177.78;;;10.17;87.93
46464;BME280;32161;48.148;-1.554;2023-05-12T01:22:11;101174.88;;;10.12;87.69
46464;BME280;32161;48.148;-1.554;2023-05-12T01:24:47;101175.34;;;10.02;88.16
46464;BME280;32161;48.148;-1.554;2023-05-12T01:27:17;101175.34;;;9.95;88.42
46464;BME280;32161;48.148;-1.554;2023-05-12T01:29:47;101162.44;;;9.91;88.69
46464;BME280;32161;48.148;-1.554;2023-05-12T01:32:16;101177.50;;;9.87;89.63
46464;BME280;32161;48.148;-1.554;2023-05-12T01:34:45;101176.22;;;9.89;89.99
46464;BME280;32161;48.148;-1.554;2023-05-12T01:37:13;101180.63;;;9.84;90.26
46464;BME280;32161;48.148;-1.554;2023-05-12T01:39:41;101185.47;;;9.75;90.65
46464;BME280;32161;48.148;-1.554;2023-05-12T01:42:08;101182.56;;;9.70;90.83
46464;BME280;32161;48.148;-1.554;2023-05-12T01:44:37;101187.38;;;9.68;89.46
46464;BME280;32161;48.148;-1.554;2023-05-12T01:47:05;101184.47;;;9.63;89.43
46464;BME280;32161;48.148;-1.554;2023-05-12T01:49:34;101187.41;;;9.54;89.71
46464;BME280;32161;48.148;-1.554;2023-05-12T01:52:03;101187.41;;;9.54;90.29
46464;BME280;32161;48.148;-1.554;2023-05-12T01:54:30;101190.53;;;9.51;90.84
46464;BME280;32161;48.148;-1.554;2023-05-12T01:56:58;101190.53;;;9.58;89.90
46464;BME280;32161;48.148;-1.554;2023-05-12T01:59:26;101178.44;;;9.54;89.32
46464;BME280;32161;48.148;-1.554;2023-05-12T02:01:55;101178.22;;;9.56;88.80
46464;BME280;32161;48.148;-1.554;2023-05-12T02:04:22;101184.91;;;9.53;88.78
46464;BME280;32161;48.148;-1.554;2023-05-12T02:06:50;101188.47;;;9.53;89.57
46464;BME280;32161;48.148;-1.554;2023-05-12T02:09:18;101180.75;;;9.50;90.21
46464;BME280;32161;48.148;-1.554;2023-05-12T02:11:46;101185.34;;;9.50;90.22
46464;BME280;32161;48.148;-1.554;2023-05-12T02:14:13;101183.03;;;9.53;90.47
46464;BME280;32161;48.148;-1.554;2023-05-12T02:16:41;101183.66;;;9.56;90.50
46464;BME280;32161;48.148;-1.554;2023-05-12T02:19:10;101188.03;;;9.57;90.41
46464;BME280;32161;48.148;-1.554;2023-05-12T02:21:38;101185.75;;;9.53;91.13
46464;BME280;32161;48.148;-1.554;2023-05-12T02:24:06;101189.72;;;9.58;91.69
46464;BME280;32161;48.148;-1.554;2023-05-12T02:26:33;101185.28;;;9.63;91.25
46464;BME280;32161;48.148;-1.554;2023-05-12T02:29:01;101183.81;;;9.67;90.69
46464;BME280;32161;48.148;-1.554;2023-05-12T02:31:28;101191.31;;;9.72;91.21
46464;BME280;32161;48.148;-1.554;2023-05-12T02:33:56;101191.13;;;9.67;91.89
46464;BME280;32161;48.148;-1.554;2023-05-12T02:36:26;101189.47;;;9.72;92.33
46464;BME280;32161;48.148;-1.554;2023-05-12T02:38:53;101186.13;;;9.70;93.08
46464;BME280;32161;48.148;-1.554;2023-05-12T02:41:21;101191.31;;;9.72;93.99
46464;BME280;32161;48.148;-1.554;2023-05-12T02:43:48;101186.09;;;9.77;94.66
46464;BME280;32161;48.148;-1.554;2023-05-12T02:46:16;101194.44;;;9.82;95.38
46464;BME280;32161;48.148;-1.554;2023-05-12T02:48:43;101192.34;;;9.84;96.23
46464;BME280;32161;48.148;-1.554;2023-05-12T02:51:11;101196.50;;;9.87;97.62
46464;BME280;32161;48.148;-1.554;2023-05-12T02:53:40;101193.75;;;9.93;98.98
46464;BME280;32161;48.148;-1.554;2023-05-12T02:56:07;101191.84;;;10.00;100.00
46464;BME280;32161;48.148;-1.554;2023-05-12T02:58:35;101188.47;;;10.12;100.00
46464;BME280;32161;48.148;-1.554;2023-05-12T03:01:03;101184.66;;;10.19;100.00
46464;BME280;32161;48.148;-1.554;2023-05-12T03:03:30;101188.22;;;10.26;100.00
46464;BME280;32161;48.148;-1.554;2023-05-12T03:05:58;101190.25;;;10.38;100.00
46464;BME280;32161;48.148;-1.554;2023-05-12T03:08:26;101183.31;;;10.42;100.00
46464;BME280;32161;48.148;-1.554;2023-05-12T03:10:56;101187.88;;;10.48;100.00
46464;BME280;32161;48.148;-1.554;2023-05-12T03:13:24;101193.47;;;10.53;100.00
46464;BME280;32161;48.148;-1.554;2023-05-12T03:15:51;101182.56;;;10.60;100.00
46464;BME280;32161;48.148;-1.554;2023-05-12T03:18:19;101190.25;;;10.69;100.00
46464;BME280;32161;48.148;-1.554;2023-05-12T03:20:47;101188.50;;;10.75;100.00
46464;BME280;32161;48.148;-1.554;2023-05-12T03:23:14;101187.25;;;10.78;100.00
46464;BME280;32161;48.148;-1.554;2023-05-12T03:25:43;101189.97;;;10.78;99.60
46464;BME280;32161;48.148;-1.554;2023-05-12T03:28:11;101190.13;;;10.83;99.17
46464;BME280;32161;48.148;-1.554;2023-05-12T03:30:39;101186.59;;;10.82;98.52
46464;BME280;32161;48.148;-1.554;2023-05-12T03:33:06;101189.06;;;10.84;98.50
46464;BME280;32161;48.148;-1.554;2023-05-12T03:35:34;101182.38;;;10.86;98.46
46464;BME280;32161;48.148;-1.554;2023-05-12T03:38:02;101181.78;;;10.84;98.52
46464;BME280;32161;48.148;-1.554;2023-05-12T03:40:30;101186.75;;;10.87;97.98
46464;BME280;32161;48.148;-1.554;2023-05-12T03:42:57;101183.59;;;10.90;96.43
46464;BME280;32161;48.148;-1.554;2023-05-12T03:45:26;101179.44;;;10.88;94.96
46464;BME280;32161;48.148;-1.554;2023-05-12T03:47:54;101188.44;;;10.88;93.49
46464;BME280;32161;48.148;-1.554;2023-05-12T03:50:21;101184.66;;;10.89;93.10
46464;BME280;32161;48.148;-1.554;2023-05-12T03:52:49;101190.38;;;10.81;92.78
46464;BME280;32161;48.148;-1.554;2023-05-12T03:55:20;101184.13;;;10.74;93.18
46464;BME280;32161;48.148;-1.554;2023-05-12T03:57:48;101183.97;;;10.69;93.37
46464;BME280;32161;48.148;-1.554;2023-05-12T04:00:17;101184.84;;;10.63;93.67
46464;BME280;32161;48.148;-1.554;2023-05-12T04:02:46;101177.94;;;10.60;93.66
46464;BME280;32161;48.148;-1.554;2023-05-12T04:05:14;101180.06;;;10.58;94.28
46464;BME280;32161;48.148;-1.554;2023-05-12T04:07:42;101179.44;;;10.56;94.76
46464;BME280;32161;48.148;-1.554;2023-05-12T04:10:10;101181.97;;;10.58;95.25
46464;BME280;32161;48.148;-1.554;2023-05-12T04:12:37;101178.78;;;10.61;95.84
46464;BME280;32161;48.148;-1.554;2023-05-12T04:15:06;101185.28;;;10.60;96.13
46464;BME280;32161;48.148;-1.554;2023-05-12T04:17:34;101185.28;;;10.60;96.24
46464;BME280;32161;48.148;-1.554;2023-05-12T04:20:03;101180.47;;;10.62;96.93
46464;BME280;32161;48.148;-1.554;2023-05-12T04:22:31;101189.84;;;10.66;97.34
46464;BME280;32161;48.148;-1.554;2023-05-12T04:24:59;101192.97;;;10.69;97.18
46464;BME280;32161;48.148;-1.554;2023-05-12T04:27:26;101191.06;;;10.70;97.77
46464;BME280;32161;48.148;-1.554;2023-05-12T04:29:54;101201.28;;;10.74;98.54
46464;BME280;32161;48.148;-1.554;2023-05-12T04:32:22;101200.44;;;10.74;98.91
46464;BME280;32161;48.148;-1.554;2023-05-12T04:34:49;101191.47;;;10.73;99.30
46464;BME280;32161;48.148;-1.554;2023-05-12T04:37:18;101198.56;;;10.74;99.80
46464;BME280;32161;48.148;-1.554;2023-05-12T04:39:47;101193.13;;;10.74;100.00
46464;BME280;32161;48.148;-1.554;2023-05-12T04:42:14;101202.94;;;10.75;100.00
46464;BME280;32161;48.148;-1.554;2023-05-12T04:44:42;101201.06;;;10.76;100.00
46464;BME280;32161;48.148;-1.554;2023-05-12T04:47:11;101201.44;;;10.80;100.00
46464;BME280;32161;48.148;-1.554;2023-05-12T04:49:39;101201.25;;;10.81;100.00
46464;BME280;32161;48.148;-1.554;2023-05-12T04:52:06;101206.44;;;10.83;100.00
46464;BME280;32161;48.148;-1.554;2023-05-12T04:54:35;101207.28;;;10.83;100.00
46464;BME280;32161;48.148;-1.554;2023-05-12T04:57:04;101215.00;;;10.86;100.00
46464;BME280;32161;48.148;-1.554;2023-05-12T04:59:32;101212.28;;;10.86;100.00
46464;BME280;32161;48.148;-1.554;2023-05-12T05:02:01;101211.63;;;10.91;100.00
46464;BME280;32161;48.148;-1.554;2023-05-12T05:04:28;101217.44;;;10.94;100.00
46464;BME280;32161;48.148;-1.554;2023-05-12T05:06:56;101217.63;;;10.99;100.00
46464;BME280;32161;48.148;-1.554;2023-05-12T05:09:24;101218.47;;;11.00;100.00
46464;BME280;32161;48.148;-1.554;2023-05-12T05:11:53;101213.03;;;11.00;100.00
46464;BME280;32161;48.148;-1.554;2023-05-12T05:14:21;101223.91;;;11.00;100.00
46464;BME280;32161;48.148;-1.554;2023-05-12T05:16:48;101226.78;;;11.05;99.91
46464;BME280;32161;48.148;-1.554;2023-05-12T05:19:16;101228.91;;;11.03;99.96
46464;BME280;32161;48.148;-1.554;2023-05-12T05:21:44;101228.06;;;11.03;99.74
46464;BME280;32161;48.148;-1.554;2023-05-12T05:24:11;101229.34;;;11.00;99.64
46464;BME280;32161;48.148;-1.554;2023-05-12T05:26:40;101236.06;;;10.97;100.00
46464;BME280;32161;48.148;-1.554;2023-05-12T05:29:08;101235.38;;;11.02;100.00
46464;BME280;32161;48.148;-1.554;2023-05-12T05:31:36;101234.78;;;11.00;100.00
46464;BME280;32161;48.148;-1.554;2023-05-12T05:34:04;101233.50;;;11.03;100.00
46464;BME280;32161;48.148;-1.554;2023-05-12T05:36:31;101233.06;;;11.06;100.00
46464;BME280;32161;48.148;-1.554;2023-05-12T05:38:59;101230.97;;;11.08;100.00
46464;BME280;32161;48.148;-1.554;2023-05-12T05:41:27;101239.72;;;11.10;100.00
46464;BME280;32161;48.148;-1.554;2023-05-12T05:43:54;101234.28;;;11.10;100.00
46464;BME280;32161;48.148;-1.554;2023-05-12T05:46:23;101242.00;;;11.13;100.00
46464;BME280;32161;48.148;-1.554;2023-05-12T05:48:51;101253.03;;;11.18;100.00
46464;BME280;32161;48.148;-1.554;2023-05-12T05:51:18;101248.44;;;11.18;100.00
46464;BME280;32161;48.148;-1.554;2023-05-12T05:53:46;101252.22;;;11.17;100.00
46464;BME280;32161;48.148;-1.554;2023-05-12T05:56:13;101248.00;;;11.21;100.00
46464;BME280;32161;48.148;-1.554;2023-05-12T05:58:41;101252.41;;;11.22;100.00
46464;BME280;32161;48.148;-1.554;2023-05-12T06:01:08;101251.09;;;11.25;100.00
46464;BME280;32161;48.148;-1.554;2023-05-12T06:03:38;101256.72;;;11.30;100.00
46464;BME280;32161;48.148;-1.554;2023-05-12T06:06:05;101262.53;;;11.34;100.00
46464;BME280;32161;48.148;-1.554;2023-05-12T06:08:34;101270.50;;;11.35;100.00
46464;BME280;32161;48.148;-1.554;2023-05-12T06:11:01;101263.56;;;11.39;100.00
46464;BME280;32161;48.148;-1.554;2023-05-12T06:13:29;101267.50;;;11.43;100.00
46464;BME280;32161;48.148;-1.554;2023-05-12T06:15:56;101265.75;;;11.49;100.00
46464;BME280;32161;48.148;-1.554;2023-05-12T06:18:24;101270.06;;;11.57;100.00
46464;BME280;32161;48.148;-1.554;2023-05-12T06:20:53;101273.38;;;11.65;100.00
46464;BME280;32161;48.148;-1.554;2023-05-12T06:23:21;101278.53;;;11.73;100.00
46464;BME280;32161;48.148;-1.554;2023-05-12T06:25:48;101279.75;;;11.78;100.00
46464;BME280;32161;48.148;-1.554;2023-05-12T06:28:16;101274.66;;;11.81;99.69
46464;BME280;32161;48.148;-1.554;2023-05-12T06:30:43;101287.03;;;11.84;99.64
46464;BME280;32161;48.148;-1.554;2023-05-12T06:33:11;101279.72;;;11.84;100.00
46464;BME280;32161;48.148;-1.554;2023-05-12T06:35:38;101273.78;;;11.87;100.00
46464;BME280;32161;48.148;-1.554;2023-05-12T06:38:07;101282.72;;;11.94;100.00
46464;BME280;32161;48.148;-1.554;2023-05-12T06:40:35;101279.69;;;12.03;100.00
46464;BME280;32161;48.148;-1.554;2023-05-12T06:43:03;101281.53;;;12.09;100.00
46464;BME280;32161;48.148;-1.554;2023-05-12T06:45:30;101284.78;;;12.17;100.00
46464;BME280;32161;48.148;-1.554;2023-05-12T06:47:58;101293.72;;;12.25;100.00
46464;BME280;32161;48.148;-1.554;2023-05-12T06:50:26;101292.56;;;12.32;100.00
46464;BME280;32161;48.148;-1.554;2023-05-12T06:52:54;101302.19;;;12.35;100.00
46464;BME280;32161;48.148;-1.554;2023-05-12T06:55:23;101295.34;;;12.44;100.00
46464;BME280;32161;48.148;-1.554;2023-05-12T06:57:51;101298.91;;;12.44;99.34
46464;BME280;32161;48.148;-1.554;2023-05-12T07:00:21;101293.25;;;12.46;100.00
46464;BME280;32161;48.148;-1.554;2023-05-12T07:02:49;101291.03;;;12.55;100.00
46464;BME280;32161;48.148;-1.554;2023-05-12T07:05:17;101294.19;;;12.70;98.91
46464;BME280;32161;48.148;-1.554;2023-05-12T07:07:44;101300.53;;;12.64;98.43
46464;BME280;32161;48.148;-1.554;2023-05-12T07:10:12;101285.00;;;12.64;98.84
46464;BME280;32161;48.148;-1.554;2023-05-12T07:12:41;101298.56;;;12.71;98.58
46464;BME280;32161;48.148;-1.554;2023-05-12T07:15:09;101298.72;;;12.76;98.20
46464;BME280;32161;48.148;-1.554;2023-05-12T07:17:37;101307.03;;;12.81;98.92
46464;BME280;32161;48.148;-1.554;2023-05-12T07:20:07;101303.16;;;12.89;99.09
46464;BME280;32161;48.148;-1.554;2023-05-12T07:22:35;101305.78;;;12.95;98.73
46464;BME280;32161;48.148;-1.554;2023-05-12T07:25:03;101308.41;;;13.02;97.83
46464;BME280;32161;48.148;-1.554;2023-05-12T07:27:31;101303.09;;;13.07;97.10
46464;BME280;32161;48.148;-1.554;2023-05-12T07:30:00;101306.53;;;13.14;97.46
46464;BME280;32161;48.148;-1.554;2023-05-12T07:32:28;101310.00;;;13.22;97.80
46464;BME280;32161;48.148;-1.554;2023-05-12T07:34:55;101306.75;;;13.31;97.98
46464;BME280;32161;48.148;-1.554;2023-05-12T07:37:23;101299.84;;;13.40;97.12
46464;BME280;32161;48.148;-1.554;2023-05-12T07:39:51;101307.22;;;13.52;97.19
46464;BME280;32161;48.148;-1.554;2023-05-12T07:42:18;101299.28;;;13.62;97.52
46464;BME280;32161;48.148;-1.554;2023-05-12T07:44:47;101303.47;;;13.76;97.60
46464;BME280;32161;48.148;-1.554;2023-05-12T07:47:17;101303.22;;;13.89;96.93
46464;BME280;32161;48.148;-1.554;2023-05-12T07:49:44;101309.50;;;14.02;96.52
46464;BME280;32161;48.148;-1.554;2023-05-12T07:52:12;101293.91;;;14.14;93.42
46464;BME280;32161;48.148;-1.554;2023-05-12T07:54:39;101304.84;;;14.14;94.11
46464;BME280;32161;48.148;-1.554;2023-05-12T07:57:07;101295.78;;;14.25;94.57
46464;BME280;32161;48.148;-1.554;2023-05-12T07:59:34;101299.19;;;14.44;92.51
46464;BME280;32161;48.148;-1.554;2023-05-12T08:02:02;101302.91;;;14.50;91.31
46464;BME280;32161;48.148;-1.554;2023-05-12T08:04:31;101297.13;;;14.63;92.10
46464;BME280;32161;48.148;-1.554;2023-05-12T08:06:59;101297.91;;;14.75;91.85
46464;BME280;32161;48.148;-1.554;2023-05-12T08:09:26;101297.38;;;14.90;91.21
46464;BME280;32161;48.148;-1.554;2023-05-12T08:11:54;101302.78;;;15.02;90.89
46464;BME280;32161;48.148;-1.554;2023-05-12T08:14:21;101307.84;;;15.10;89.80
46464;BME280;32161;48.148;-1.554;2023-05-12T08:16:50;101307.91;;;15.27;90.33
46464;BME280;32161;48.148;-1.554;2023-05-12T08:19:18;101311.88;;;15.36;90.04
46464;BME280;32161;48.148;-1.554;2023-05-12T08:21:47;101313.38;;;15.44;88.41
46464;BME280;32161;48.148;-1.554;2023-05-12T08:24:14;101312.72;;;15.53;87.47
46464;BME280;32161;48.148;-1.554;2023-05-12T08:26:42;101306.09;;;15.66;88.63
46464;BME280;32161;48.148;-1.554;2023-05-12T08:29:10;101309.63;;;15.83;89.09
46464;BME280;32161;48.148;-1.554;2023-05-12T08:31:38;101315.66;;;16.02;85.55
46464;BME280;32161;48.148;-1.554;2023-05-12T08:34:05;101310.38;;;15.96;85.47
46464;BME280;32161;48.148;-1.554;2023-05-12T08:36:33;101321.19;;;15.85;85.17
46464;BME280;32161;48.148;-1.554;2023-05-12T08:39:02;101317.28;;;15.65;84.13
46464;BME280;32161;48.148;-1.554;2023-05-12T08:41:41;101316.19;;;15.49;85.55
46464;BME280;32161;48.148;-1.554;2023-05-12T08:44:11;101319.94;;;15.43;86.45
46464;BME280;32161;48.148;-1.554;2023-05-12T08:46:38;101320.19;;;15.58;87.00
46464;BME280;32161;48.148;-1.554;2023-05-12T08:49:09;101332.59;;;15.77;86.70
46464;BME280;32161;48.148;-1.554;2023-05-12T08:51:42;101331.66;;;15.72;86.41
46464;BME280;32161;48.148;-1.554;2023-05-12T08:54:13;101325.53;;;15.81;86.33
46464;BME280;32161;48.148;-1.554;2023-05-12T08:56:42;101335.97;;;16.01;85.61
46464;BME280;32161;48.148;-1.554;2023-05-12T08:59:10;101331.50;;;16.17;83.23
46464;BME280;32161;48.148;-1.554;2023-05-12T09:01:39;101328.97;;;16.32;81.11
46464;BME280;32161;48.148;-1.554;2023-05-12T09:04:08;101337.34;;;16.43;80.04
46464;BME280;32161;48.148;-1.554;2023-05-12T09:06:36;101345.09;;;16.46;81.07
46464;BME280;32161;48.148;-1.554;2023-05-12T09:09:03;101338.88;;;16.55;81.11
46464;BME280;32161;48.148;-1.554;2023-05-12T09:11:32;101346.94;;;16.62;80.22
46464;BME280;32161;48.148;-1.554;2023-05-12T09:14:03;101348.75;;;16.73;80.22
46464;BME280;32161;48.148;-1.554;2023-05-12T09:16:35;101341.69;;;16.82;79.06
46464;BME280;32161;48.148;-1.554;2023-05-12T09:19:04;101343.25;;;16.73;77.86
46464;BME280;32161;48.148;-1.554;2023-05-12T09:21:32;101337.31;;;16.81;79.51
46464;BME280;32161;48.148;-1.554;2023-05-12T09:24:02;101340.72;;;16.94;77.60
46464;BME280;32161;48.148;-1.554;2023-05-12T09:26:45;101336.91;;;16.73;77.51
46464;BME280;32161;48.148;-1.554;2023-05-12T09:29:13;101335.69;;;16.86;78.32
46464;BME280;32161;48.148;-1.554;2023-05-12T09:31:48;101338.50;;;16.91;76.33
46464;BME280;32161;48.148;-1.554;2023-05-12T09:34:18;101346.69;;;16.86;75.96
46464;BME280;32161;48.148;-1.554;2023-05-12T09:36:55;101339.84;;;16.88;75.56
46464;BME280;32161;48.148;-1.554;2023-05-12T09:39:23;101348.91;;;16.89;75.89
46464;BME280;32161;48.148;-1.554;2023-05-12T09:41:52;101341.94;;;17.03;78.35
46464;BME280;32161;48.148;-1.554;2023-05-12T09:44:20;101345.88;;;17.12;78.50
46464;BME280;32161;48.148;-1.554;2023-05-12T09:46:48;101338.72;;;17.11;75.47
46464;BME280;32161;48.148;-1.554;2023-05-12T09:49:19;101335.91;;;17.06;75.43
46464;BME280;32161;48.148;-1.554;2023-05-12T09:51:51;101337.94;;;17.16;76.80
46464;BME280;32161;48.148;-1.554;2023-05-12T09:54:26;101332.91;;;17.35;72.91
46464;BME280;32161;48.148;-1.554;2023-05-12T09:56:58;101336.19;;;17.37;73.77
46464;BME280;32161;48.148;-1.554;2023-05-12T09:59:31;101343.81;;;17.29;74.92
46464;BME280;32161;48.148;-1.554;2023-05-12T10:02:00;101337.81;;;17.05;74.80
46464;BME280;32161;48.148;-1.554;2023-05-12T10:04:35;101339.06;;;17.20;74.94
46464;BME280;32161;48.148;-1.554;2023-05-12T10:07:06;101340.78;;;17.26;74.05
46464;BME280;32161;48.148;-1.554;2023-05-12T10:09:37;101338.09;;;17.31;73.54
46464;BME280;32161;48.148;-1.554;2023-05-12T10:12:09;101340.31;;;17.34;75.62
46464;BME280;32161;48.148;-1.554;2023-05-12T10:14:37;101347.66;;;17.28;68.24
46464;BME280;32161;48.148;-1.554;2023-05-12T10:17:05;101348.88;;;17.38;66.25
46464;BME280;32161;48.148;-1.554;2023-05-12T10:19:33;101341.78;;;17.15;67.94
46464;BME280;32161;48.148;-1.554;2023-05-12T10:22:01;101342.59;;;17.15;71.06
46464;BME280;32161;48.148;-1.554;2023-05-12T10:24:29;101342.75;;;17.30;70.79
46464;BME280;32161;48.148;-1.554;2023-05-12T10:26:56;101332.03;;;17.61;66.56
46464;BME280;32161;48.148;-1.554;2023-05-12T10:29:26;101332.50;;;17.53;68.37
46464;BME280;32161;48.148;-1.554;2023-05-12T10:31:55;101334.19;;;17.59;68.14
46464;BME280;32161;48.148;-1.554;2023-05-12T10:34:28;101335.06;;;17.97;67.50
46464;BME280;32161;48.148;-1.554;2023-05-12T10:36:57;101332.09;;;18.09;66.39
46464;BME280;32161;48.148;-1.554;2023-05-12T10:39:28;101322.50;;;18.16;65.08
46464;BME280;32161;48.148;-1.554;2023-05-12T10:42:01;101317.63;;;18.28;64.57
46464;BME280;32161;48.148;-1.554;2023-05-12T10:44:32;101319.63;;;18.43;64.07
46464;BME280;32161;48.148;-1.554;2023-05-12T10:47:01;101328.44;;;18.45;63.61
46464;BME280;32161;48.148;-1.554;2023-05-12T10:49:32;101329.03;;;18.58;66.07
46464;BME280;32161;48.148;-1.554;2023-05-12T10:52:02;101333.38;;;18.43;64.47
46464;BME280;32161;48.148;-1.554;2023-05-12T10:54:38;101323.84;;;18.61;68.55
46464;BME280;32161;48.148;-1.554;2023-05-12T10:57:12;101328.25;;;18.67;63.49
46464;BME280;32161;48.148;-1.554;2023-05-12T10:59:49;101326.66;;;18.76;64.63
46464;BME280;32161;48.148;-1.554;2023-05-12T11:02:22;101322.56;;;18.89;63.31
46464;BME280;32161;48.148;-1.554;2023-05-12T11:04:52;101322.56;;;18.94;63.03
46464;BME280;32161;48.148;-1.554;2023-05-12T11:07:25;101319.81;;;18.84;62.33
46464;BME280;32161;48.148;-1.554;2023-05-12T11:09:55;101323.38;;;18.80;63.06
46464;BME280;32161;48.148;-1.554;2023-05-12T11:12:23;101317.59;;;18.81;63.34
46464;BME280;32161;48.148;-1.554;2023-05-12T11:14:53;101317.91;;;18.95;60.90
46464;BME280;32161;48.148;-1.554;2023-05-12T11:17:21;101313.22;;;19.00;62.51
46464;BME280;32161;48.148;-1.554;2023-05-12T11:19:49;101318.47;;;19.12;62.56
46464;BME280;32161;48.148;-1.554;2023-05-12T11:22:19;101320.13;;;19.03;63.53
46464;BME280;32161;48.148;-1.554;2023-05-12T11:24:48;101317.38;;;19.18;59.87
46464;BME280;32161;48.148;-1.554;2023-05-12T11:27:18;101313.78;;;19.13;57.98
46464;BME280;32161;48.148;-1.554;2023-05-12T11:29:57;101319.31;;;19.23;59.06
46464;BME280;32161;48.148;-1.554;2023-05-12T11:32:25;101321.25;;;19.22;59.30
46464;BME280;32161;48.148;-1.554;2023-05-12T11:34:54;101320.72;;;19.31;59.00
46464;BME280;32161;48.148;-1.554;2023-05-12T11:37:22;101315.72;;;19.33;60.72
46464;BME280;32161;48.148;-1.554;2023-05-12T11:39:49;101314.63;;;19.23;60.09
46464;BME280;32161;48.148;-1.554;2023-05-12T11:42:18;101312.41;;;19.25;58.97
46464;BME280;32161;48.148;-1.554;2023-05-12T11:44:48;101311.31;;;19.32;58.34
46464;BME280;32161;48.148;-1.554;2023-05-12T11:47:18;101312.97;;;19.27;59.91
46464;BME280;32161;48.148;-1.554;2023-05-12T11:49:48;101290.09;;;19.32;62.50
46464;BME280;32161;48.148;-1.554;2023-05-12T11:52:16;101304.72;;;19.38;61.49
46464;BME280;32161;48.148;-1.554;2023-05-12T11:54:48;101308.31;;;19.38;58.88
46464;BME280;32161;48.148;-1.554;2023-05-12T11:57:25;101306.66;;;19.52;62.08
46464;BME280;32161;48.148;-1.554;2023-05-12T11:59:57;101299.22;;;19.63;61.49
46464;BME280;32161;48.148;-1.554;2023-05-12T12:02:26;101312.44;;;19.71;61.42
46464;BME280;32161;48.148;-1.554;2023-05-12T12:04:55;101308.31;;;19.84;61.85
46464;BME280;32161;48.148;-1.554;2023-05-12T12:07:33;101301.38;;;19.92;60.57
46464;BME280;32161;48.148;-1.554;2023-05-12T12:10:10;101305.78;;;19.93;58.45
46464;BME280;32161;48.148;-1.554;2023-05-12T12:12:38;101305.50;;;19.99;60.35
46464;BME280;32161;48.148;-1.554;2023-05-12T12:15:07;101311.00;;;20.15;60.20
46464;BME280;32161;48.148;-1.554;2023-05-12T12:17:36;101299.63;;;20.21;61.36
46464;BME280;32161;48.148;-1.554;2023-05-12T12:20:06;101302.34;;;20.37;58.96
46464;BME280;32161;48.148;-1.554;2023-05-12T12:22:34;101305.41;;;20.30;59.58
46464;BME280;32161;48.148;-1.554;2023-05-12T12:25:01;101302.88;;;20.39;62.08
46464;BME280;32161;48.148;-1.554;2023-05-12T12:27:29;101309.59;;;20.22;59.38
46464;BME280;32161;48.148;-1.554;2023-05-12T12:29:57;101303.75;;;20.34;60.66
46464;BME280;32161;48.148;-1.554;2023-05-12T12:32:25;101304.00;;;20.33;59.78
46464;BME280;32161;48.148;-1.554;2023-05-12T12:34:54;101306.78;;;20.28;60.09
46464;BME280;32161;48.148;-1.554;2023-05-12T12:37:24;101299.31;;;20.33;58.40
46464;BME280;32161;48.148;-1.554;2023-05-12T12:39:52;101304.63;;;20.09;59.72
46464;BME280;32161;48.148;-1.554;2023-05-12T12:42:20;101305.72;;;20.18;60.56
46464;BME280;32161;48.148;-1.554;2023-05-12T12:44:47;101303.69;;;20.44;61.68